Time;durP1;ratioP1;P1;durP2;ratioP2;P2;SDS_P1;SDS_P2;PMS_P1;PMS_P2;Temp;Humidity;BMP_temperature;BMP_pressure;BME280_temperature;BME280_humidity;BME280_pressure;Samples;Min_cycle;Max_cycle;Signal;HPM_P1;HPM_P2
2023/06/11 00:02:05;;;;;;;10.07;9.27;;;20.60;99.90;;;;;;4993752;28;20203;-69
2023/06/11 00:04:34;;;;;;;9.70;8.70;;;20.60;99.90;;;;;;4995281;28;20193;-70
2023/06/11 00:07:01;;;;;;;9.07;8.30;;;20.50;99.90;;;;;;4995201;28;20438;-70
2023/06/11 00:09:27;;;;;;;8.87;8.20;;;20.50;99.90;;;;;;4994877;28;21020;-69
2023/06/11 00:11:53;;;;;;;9.63;8.50;;;20.50;99.90;;;;;;4995254;28;20527;-69
2023/06/11 00:14:20;;;;;;;9.30;8.60;;;20.50;99.90;;;;;;4993079;28;20278;-69
2023/06/11 00:16:45;;;;;;;8.30;7.70;;;20.50;99.90;;;;;;4986889;28;20840;-69
2023/06/11 00:19:11;;;;;;;9.73;9.03;;;20.60;99.90;;;;;;4994434;28;20506;-70
2023/06/11 00:21:43;;;;;;;8.93;8.23;;;20.60;99.90;;;;;;4994924;28;20211;-70
2023/06/11 00:24:13;;;;;;;8.67;7.90;;;20.60;99.90;;;;;;4994848;28;20833;-70
2023/06/11 00:26:40;;;;;;;9.50;8.80;;;20.60;99.90;;;;;;4995091;28;20418;-70
2023/06/11 00:29:06;;;;;;;8.83;8.23;;;20.40;99.90;;;;;;4986791;28;20444;-70
2023/06/11 00:31:32;;;;;;;9.10;8.50;;;20.50;99.90;;;;;;4992371;28;20454;-69
2023/06/11 00:33:59;;;;;;;10.57;9.73;;;20.50;99.90;;;;;;4994749;28;20912;-69
2023/06/11 00:36:26;;;;;;;9.87;9.17;;;20.40;99.90;;;;;;4994320;28;20250;-69
2023/06/11 00:38:52;;;;;;;10.33;9.60;;;20.30;99.90;;;;;;4994577;28;20437;-69
2023/06/11 00:41:18;;;;;;;9.77;9.07;;;20.20;99.90;;;;;;4994633;28;20423;-69
2023/06/11 00:43:43;;;;;;;9.20;8.50;;;20.10;99.90;;;;;;4992882;28;20505;-68
2023/06/11 00:46:10;;;;;;;10.13;9.33;;;20.00;99.90;;;;;;4991289;28;20659;-69
2023/06/11 00:48:40;;;;;;;11.00;10.20;;;19.90;99.90;;;;;;4992900;28;20215;-69
2023/06/11 00:51:06;;;;;;;10.83;10.03;;;19.90;99.90;;;;;;4990388;28;20432;-70
2023/06/11 00:53:32;;;;;;;11.77;10.73;;;19.90;99.90;;;;;;4993510;28;20431;-71
2023/06/11 00:55:57;;;;;;;9.40;8.70;;;19.70;99.90;;;;;;4994139;28;20465;-70
2023/06/11 00:58:23;;;;;;;10.00;9.20;;;19.60;99.90;;;;;;4993945;28;20168;-69
2023/06/11 01:00:52;;;;;;;10.90;10.00;;;19.50;99.90;;;;;;4992907;28;20234;-70
2023/06/11 01:03:22;;;;;;;10.63;9.80;;;19.40;99.90;;;;;;4983221;28;20215;-70
2023/06/11 01:05:53;;;;;;;10.77;9.97;;;19.30;99.90;;;;;;4993682;28;20422;-71
2023/06/11 01:08:19;;;;;;;12.17;10.27;;;19.30;99.90;;;;;;4993664;28;20426;-69
2023/06/11 01:10:47;;;;;;;9.80;9.10;;;19.20;99.90;;;;;;4974647;28;20816;-70
2023/06/11 01:13:13;;;;;;;9.73;9.03;;;19.10;99.90;;;;;;4993692;28;20450;-69
2023/06/11 01:15:38;;;;;;;9.87;9.13;;;19.10;99.90;;;;;;4993763;28;20554;-69
2023/06/11 01:18:19;;;;;;;11.70;10.80;;;19.00;99.90;;;;;;4986358;28;20523;-70
2023/06/11 01:20:54;;;;;;;10.53;9.73;;;19.10;99.90;;;;;;4993105;28;20179;-70
2023/06/11 01:23:40;;;;;;;9.77;9.07;;;19.10;99.90;;;;;;4993681;28;20959;-70
2023/06/11 01:26:28;;;;;;;10.47;9.67;;;19.00;99.90;;;;;;4993520;28;20430;-69
2023/06/11 01:28:56;;;;;;;11.53;10.73;;;19.00;99.90;;;;;;4993587;28;20417;-69
2023/06/11 01:31:24;;;;;;;10.50;9.70;;;19.00;99.90;;;;;;4992577;28;20489;-69
2023/06/11 01:33:51;;;;;;;9.63;8.93;;;19.10;99.90;;;;;;4985483;28;20509;-70
2023/06/11 01:36:17;;;;;;;11.43;10.53;;;18.90;99.90;;;;;;4993420;28;20979;-69
2023/06/11 01:38:44;;;;;;;11.63;10.63;;;18.90;99.90;;;;;;4993373;28;20417;-69
2023/06/11 01:41:11;;;;;;;11.33;10.40;;;18.80;99.90;;;;;;4992845;28;20447;-68
2023/06/11 01:43:37;;;;;;;12.10;11.10;;;18.70;99.90;;;;;;4984920;28;20435;-69
2023/06/11 01:46:04;;;;;;;10.70;9.90;;;18.60;99.90;;;;;;4984090;28;20989;-70
2023/06/11 01:48:29;;;;;;;10.97;10.17;;;18.60;99.90;;;;;;4993057;28;20183;-69
2023/06/11 01:50:55;;;;;;;11.87;10.80;;;18.60;99.90;;;;;;4993367;28;20426;-69
2023/06/11 01:53:20;;;;;;;12.23;11.33;;;18.50;99.90;;;;;;4987730;28;20689;-70
2023/06/11 01:55:46;;;;;;;11.63;10.77;;;18.50;99.90;;;;;;4991049;28;20241;-69
2023/06/11 01:58:12;;;;;;;11.93;10.93;;;18.50;99.90;;;;;;4992481;28;20168;-69
2023/06/11 02:00:37;;;;;;;11.37;10.57;;;18.50;99.90;;;;;;4992873;28;20182;-69
2023/06/11 02:03:05;;;;;;;13.10;12.00;;;18.40;99.90;;;;;;4991605;28;20190;-70
2023/06/11 02:05:31;;;;;;;11.20;10.30;;;18.30;99.90;;;;;;4993138;28;20234;-70
2023/06/11 02:07:56;;;;;;;12.07;11.17;;;18.30;99.90;;;;;;4992991;28;21122;-70
2023/06/11 02:10:22;;;;;;;11.33;10.40;;;18.30;99.90;;;;;;4992722;28;20437;-69
2023/06/11 02:12:47;;;;;;;12.13;11.23;;;18.20;99.90;;;;;;4987571;28;20208;-69
2023/06/11 02:15:13;;;;;;;10.77;9.87;;;18.10;99.90;;;;;;4984301;28;20534;-70
2023/06/11 02:17:39;;;;;;;11.00;10.20;;;18.00;99.90;;;;;;4992522;28;20534;-69
2023/06/11 02:20:06;;;;;;;12.37;11.40;;;18.00;99.90;;;;;;4992655;28;20195;-69
2023/06/11 02:22:34;;;;;;;12.60;11.50;;;17.90;99.90;;;;;;4992601;28;20207;-69
2023/06/11 02:25:01;;;;;;;11.40;10.53;;;17.80;99.90;;;;;;4992763;28;20419;-68
2023/06/11 02:27:26;;;;;;;10.83;10.03;;;17.80;99.90;;;;;;4992813;28;20422;-68
2023/06/11 02:29:52;;;;;;;11.47;10.60;;;17.80;99.90;;;;;;4991329;28;20449;-70
2023/06/11 02:32:17;;;;;;;12.03;11.10;;;17.80;99.90;;;;;;4992689;28;20207;-70
2023/06/11 02:34:43;;;;;;;12.33;11.43;;;17.80;99.90;;;;;;4992361;28;20661;-70
2023/06/11 02:37:09;;;;;;;12.10;11.20;;;17.80;99.90;;;;;;4992745;28;20171;-70
2023/06/11 02:39:34;;;;;;;11.17;10.27;;;17.90;99.90;;;;;;4992203;28;20176;-71
2023/06/11 02:42:00;;;;;;;12.20;11.20;;;17.90;99.90;;;;;;4992603;28;20195;-69
2023/06/11 02:44:26;;;;;;;11.17;10.17;;;17.90;99.90;;;;;;4992454;28;20167;-69
2023/06/11 02:46:51;;;;;;;11.73;10.83;;;17.80;99.90;;;;;;4991494;28;20186;-70
2023/06/11 02:49:17;;;;;;;11.63;10.60;;;17.90;99.90;;;;;;4992115;28;20187;-70
2023/06/11 02:51:42;;;;;;;10.13;9.33;;;17.80;99.90;;;;;;4992388;28;20737;-69
2023/06/11 02:54:08;;;;;;;11.07;10.27;;;17.80;99.90;;;;;;4983261;28;20181;-69
2023/06/11 02:56:33;;;;;;;10.80;9.90;;;17.80;99.90;;;;;;4992492;28;20211;-69
2023/06/11 02:58:59;;;;;;;12.00;11.10;;;17.80;99.90;;;;;;4992174;28;20262;-70
2023/06/11 03:01:25;;;;;;;10.80;10.00;;;17.80;99.90;;;;;;4991266;28;20246;-70
2023/06/11 03:03:50;;;;;;;11.43;10.30;;;17.70;99.90;;;;;;4984316;28;20179;-69
2023/06/11 03:06:16;;;;;;;12.50;11.50;;;17.70;99.90;;;;;;4992466;28;20682;-69
2023/06/11 03:08:41;;;;;;;12.17;11.17;;;17.70;99.90;;;;;;4991799;28;20243;-70
2023/06/11 03:11:07;;;;;;;10.90;9.90;;;17.60;99.90;;;;;;4995757;28;20236;-69
2023/06/11 03:13:32;;;;;;;10.83;9.93;;;17.60;99.90;;;;;;4996236;28;20182;-69
2023/06/11 03:15:58;;;;;;;11.37;10.43;;;17.60;99.90;;;;;;4996069;28;20235;-70
2023/06/11 03:18:23;;;;;;;10.83;9.93;;;17.50;99.90;;;;;;4994870;28;20176;-70
2023/06/11 03:20:49;;;;;;;10.90;9.80;;;17.50;99.90;;;;;;4995962;28;20214;-69
2023/06/11 03:23:15;;;;;;;11.80;10.80;;;17.40;99.90;;;;;;4995823;28;20274;-69
2023/06/11 03:25:41;;;;;;;11.03;9.90;;;17.40;99.90;;;;;;4995915;28;20713;-70
2023/06/11 03:28:07;;;;;;;11.47;10.57;;;17.40;99.90;;;;;;4995890;28;20266;-70
2023/06/11 03:30:32;;;;;;;10.93;10.03;;;17.30;99.90;;;;;;4995700;28;20501;-70
2023/06/11 03:32:58;;;;;;;12.30;11.20;;;17.30;99.90;;;;;;4996131;28;20199;-70
2023/06/11 03:35:23;;;;;;;12.90;11.60;;;17.20;99.90;;;;;;4994941;28;20397;-70
2023/06/11 03:37:49;;;;;;;12.37;11.37;;;17.30;99.90;;;;;;4986493;28;20179;-69
2023/06/11 03:40:15;;;;;;;12.40;11.37;;;17.30;99.90;;;;;;4983071;28;20183;-70
2023/06/11 03:42:40;;;;;;;11.00;10.20;;;17.40;99.90;;;;;;4993996;28;20203;-70
2023/06/11 03:45:06;;;;;;;11.13;10.33;;;17.40;99.90;;;;;;4995830;28;20427;-70
2023/06/11 03:47:32;;;;;;;11.13;10.33;;;17.40;99.90;;;;;;4995615;28;20172;-69
2023/06/11 03:49:57;;;;;;;11.20;10.20;;;17.40;99.90;;;;;;4995441;28;20426;-68
2023/06/11 03:52:23;;;;;;;11.37;10.47;;;17.40;99.90;;;;;;4985185;28;20286;-70
2023/06/11 03:54:48;;;;;;;13.27;10.83;;;17.40;99.90;;;;;;4987165;28;20681;-70
2023/06/11 03:57:14;;;;;;;11.30;10.40;;;17.50;99.90;;;;;;4995412;28;20653;-69
2023/06/11 03:59:39;;;;;;;10.93;10.13;;;17.60;99.90;;;;;;4994359;28;20174;-69
2023/06/11 04:02:05;;;;;;;11.13;10.33;;;17.70;99.90;;;;;;4993124;28;20209;-69
2023/06/11 04:04:32;;;;;;;10.90;10.10;;;17.70;99.90;;;;;;4993344;28;20565;-69
2023/06/11 04:06:58;;;;;;;11.37;10.43;;;17.80;99.90;;;;;;4994555;28;20463;-70
2023/06/11 04:09:24;;;;;;;11.07;10.17;;;17.80;99.90;;;;;;4992577;28;20540;-69
2023/06/11 04:11:49;;;;;;;10.70;9.90;;;17.90;99.90;;;;;;4995040;28;20235;-69
2023/06/11 04:14:15;;;;;;;10.73;9.73;;;17.90;99.90;;;;;;4995106;28;20450;-70
2023/06/11 04:16:40;;;;;;;11.33;10.43;;;18.00;99.90;;;;;;4991866;28;20207;-70
2023/06/11 04:19:06;;;;;;;10.60;9.80;;;18.20;99.90;;;;;;4988702;28;20674;-70
2023/06/11 04:21:31;;;;;;;11.40;10.50;;;18.30;99.90;;;;;;4994670;28;20254;-69
2023/06/11 04:23:57;;;;;;;9.50;8.60;;;18.30;99.90;;;;;;4994905;28;20203;-69
2023/06/11 04:26:23;;;;;;;11.67;10.77;;;18.40;99.90;;;;;;4994893;28;20203;-70
2023/06/11 04:28:50;;;;;;;10.00;9.20;;;18.40;99.90;;;;;;4994542;28;20174;-69
2023/06/11 04:31:16;;;;;;;11.10;10.30;;;18.50;99.90;;;;;;4994770;28;20477;-69
2023/06/11 04:33:41;;;;;;;11.20;10.40;;;18.60;99.90;;;;;;4993799;28;20442;-69
2023/06/11 04:36:09;;;;;;;10.50;9.70;;;18.90;99.90;;;;;;4994697;28;20195;-70
2023/06/11 04:38:38;;;;;;;10.57;9.70;;;19.00;99.90;;;;;;4994646;28;20171;-69
2023/06/11 04:41:11;;;;;;;10.23;9.43;;;19.10;99.90;;;;;;4994715;28;20423;-70
2023/06/11 04:43:36;;;;;;;10.60;9.80;;;19.20;99.90;;;;;;4994653;28;21012;-69
2023/06/11 04:46:03;;;;;;;10.17;9.37;;;19.40;99.90;;;;;;4994579;28;20510;-69
2023/06/11 04:48:31;;;;;;;11.10;10.30;;;19.60;99.90;;;;;;4992951;28;20649;-70
2023/06/11 04:50:59;;;;;;;10.03;9.27;;;19.70;99.90;;;;;;4982853;28;20438;-69
2023/06/11 04:53:27;;;;;;;10.57;9.77;;;19.90;99.90;;;;;;4994484;28;20516;-70
2023/06/11 04:55:55;;;;;;;10.10;9.40;;;20.00;99.90;;;;;;4994322;28;20809;-70
2023/06/11 04:58:27;;;;;;;10.70;9.70;;;20.20;99.90;;;;;;4993998;28;20837;-70
2023/06/11 05:00:56;;;;;;;10.33;9.57;;;20.20;99.90;;;;;;4994183;28;20477;-70
2023/06/11 05:03:24;;;;;;;9.40;8.63;;;20.30;99.90;;;;;;4994110;28;20522;-70
2023/06/11 05:05:50;;;;;;;10.27;9.47;;;20.40;99.90;;;;;;4989933;28;20435;-70
2023/06/11 05:08:24;;;;;;;10.13;9.27;;;20.50;99.90;;;;;;4976073;28;20431;-70
2023/06/11 05:10:52;;;;;;;9.43;8.73;;;20.60;99.90;;;;;;4983609;28;20442;-70
2023/06/11 05:13:25;;;;;;;9.90;9.20;;;20.60;99.90;;;;;;4993071;28;20466;-70
2023/06/11 05:15:55;;;;;;;9.73;9.03;;;20.70;99.90;;;;;;4989592;28;20522;-70
2023/06/11 05:18:21;;;;;;;8.63;8.03;;;20.80;99.90;;;;;;4989910;28;20459;-70
2023/06/11 05:20:49;;;;;;;9.13;8.43;;;20.90;99.90;;;;;;4985535;28;20910;-70
2023/06/11 05:23:16;;;;;;;9.47;8.67;;;21.10;99.90;;;;;;4988971;28;20207;-71
2023/06/11 05:25:47;;;;;;;10.60;9.70;;;21.20;99.90;;;;;;4974901;28;20818;-70
2023/06/11 05:28:13;;;;;;;10.77;9.77;;;21.30;99.90;;;;;;4974114;28;20423;-72
2023/06/11 05:30:43;;;;;;;8.50;7.90;;;21.40;99.90;;;;;;4974544;28;20459;-71
2023/06/11 05:33:09;;;;;;;9.67;8.83;;;21.40;99.90;;;;;;4973547;28;20455;-71
2023/06/11 05:35:35;;;;;;;9.50;8.80;;;21.60;99.90;;;;;;4974179;28;20467;-70
2023/06/11 05:38:03;;;;;;;10.30;9.60;;;21.60;99.90;;;;;;4974808;28;20543;-71
2023/06/11 05:40:30;;;;;;;8.97;8.27;;;21.70;99.90;;;;;;4990008;28;20419;-71
2023/06/11 05:42:55;;;;;;;8.87;8.17;;;21.70;99.90;;;;;;4993197;28;20443;-71
2023/06/11 05:45:21;;;;;;;8.93;8.03;;;21.70;99.90;;;;;;4993664;28;20426;-70
2023/06/11 05:47:46;;;;;;;9.90;9.03;;;21.70;99.90;;;;;;4993484;28;20175;-70
2023/06/11 05:50:12;;;;;;;8.50;7.90;;;21.60;99.90;;;;;;4993222;28;20242;-71
2023/06/11 05:52:37;;;;;;;11.07;10.07;;;21.80;99.90;;;;;;4993199;28;20195;-70
2023/06/11 05:55:04;;;;;;;9.30;8.63;;;21.90;99.90;;;;;;4987350;28;20435;-71
2023/06/11 05:57:30;;;;;;;9.67;8.97;;;21.90;99.90;;;;;;4984661;28;20172;-70
2023/06/11 05:59:55;;;;;;;9.23;8.53;;;21.80;99.90;;;;;;4985514;28;20477;-70
2023/06/11 06:02:21;;;;;;;9.60;8.80;;;21.90;99.90;;;;;;4992281;28;20274;-71
2023/06/11 06:04:48;;;;;;;9.80;9.10;;;22.00;99.90;;;;;;4985110;28;20171;-71
2023/06/11 06:07:14;;;;;;;10.47;9.57;;;22.00;99.90;;;;;;4992906;28;20427;-71
2023/06/11 06:09:40;;;;;;;9.10;8.50;;;21.90;99.90;;;;;;4991474;28;20442;-71
2023/06/11 06:12:06;;;;;;;9.27;8.53;;;21.90;99.90;;;;;;4992662;28;20445;-71
2023/06/11 06:14:32;;;;;;;9.00;8.37;;;22.30;99.90;;;;;;4992120;28;20183;-71
2023/06/11 06:16:58;;;;;;;10.03;9.13;;;22.60;99.90;;;;;;4990670;28;20462;-71
2023/06/11 06:19:23;;;;;;;9.57;8.83;;;22.70;99.90;;;;;;4991838;28;20528;-71
2023/06/11 06:21:49;;;;;;;10.70;9.87;;;22.80;99.90;;;;;;4991225;28;20462;-71
2023/06/11 06:24:14;;;;;;;8.83;8.23;;;22.70;99.90;;;;;;4990477;28;20183;-71
2023/06/11 06:26:40;;;;;;;8.83;8.13;;;22.70;99.90;;;;;;4992651;28;20547;-71
2023/06/11 06:29:09;;;;;;;10.00;8.20;;;22.90;99.90;;;;;;4992477;28;20171;-71
2023/06/11 06:31:38;;;;;;;9.47;8.70;;;22.80;99.90;;;;;;4992663;28;20450;-71
2023/06/11 06:34:04;;;;;;;8.80;8.10;;;22.80;99.90;;;;;;4992719;28;20435;-71
2023/06/11 06:36:29;;;;;;;8.70;8.10;;;22.80;99.90;;;;;;4991284;28;20497;-70
2023/06/11 06:38:55;;;;;;;9.07;8.47;;;22.60;99.90;;;;;;4984819;28;20423;-70
2023/06/11 06:41:21;;;;;;;8.93;8.10;;;22.90;99.90;;;;;;4992419;28;20171;-71
2023/06/11 06:43:46;;;;;;;8.80;8.20;;;22.70;99.90;;;;;;4991712;28;20198;-71
2023/06/11 06:46:12;;;;;;;8.30;7.50;;;22.90;99.90;;;;;;4992412;28;20183;-70
2023/06/11 06:48:37;;;;;;;9.97;9.07;;;23.10;99.90;;;;;;4991826;28;20179;-70
2023/06/11 06:51:03;;;;;;;9.10;8.50;;;23.40;99.90;;;;;;4990638;28;20187;-70
2023/06/11 06:53:28;;;;;;;8.50;7.87;;;23.80;99.90;;;;;;4984268;28;20179;-71
2023/06/11 06:55:54;;;;;;;8.90;8.27;;;24.00;99.90;;;;;;4992227;28;20211;-71
2023/06/11 06:58:20;;;;;;;10.13;8.80;;;24.00;99.90;;;;;;4992201;28;20168;-71
2023/06/11 07:00:45;;;;;;;10.10;9.20;;;23.80;99.90;;;;;;4992408;28;20191;-70
2023/06/11 07:03:14;;;;;;;9.47;8.67;;;23.70;99.90;;;;;;4992289;28;20202;-71
2023/06/11 07:05:44;;;;;;;8.73;7.90;;;23.90;99.90;;;;;;4982538;28;20192;-70
2023/06/11 07:08:12;;;;;;;9.07;8.33;;;24.00;99.90;;;;;;4986672;28;20430;-72
2023/06/11 07:10:41;;;;;;;8.70;7.93;;;23.80;99.90;;;;;;4992134;28;20951;-70
2023/06/11 07:13:10;;;;;;;9.53;8.83;;;23.90;99.90;;;;;;4992452;28;20525;-71
2023/06/11 07:15:35;;;;;;;9.17;8.57;;;23.90;99.90;;;;;;4992267;28;20462;-71
2023/06/11 07:18:01;;;;;;;9.70;9.10;;;23.90;99.90;;;;;;4991657;28;20423;-71
2023/06/11 07:20:26;;;;;;;9.00;8.03;;;24.10;99.90;;;;;;4983843;28;20175;-71
2023/06/11 07:22:52;;;;;;;9.67;8.80;;;24.10;99.90;;;;;;4991848;28;20700;-72
2023/06/11 07:25:17;;;;;;;9.67;8.97;;;23.90;99.90;;;;;;4990273;28;20179;-71
2023/06/11 07:27:43;;;;;;;9.30;8.50;;;23.90;99.90;;;;;;4992062;28;20184;-70
2023/06/11 07:30:09;;;;;;;9.57;8.87;;;24.10;99.90;;;;;;4991912;28;20510;-71
2023/06/11 07:32:35;;;;;;;9.07;8.47;;;24.00;99.90;;;;;;4989948;28;20342;-71
2023/06/11 07:35:01;;;;;;;7.60;7.10;;;24.30;99.90;;;;;;4985448;28;20538;-70
2023/06/11 07:37:26;;;;;;;9.47;8.57;;;24.50;99.90;;;;;;4991949;28;20183;-70
2023/06/11 07:39:52;;;;;;;9.63;8.73;;;24.60;99.90;;;;;;4991744;28;20177;-71
2023/06/11 07:42:17;;;;;;;9.00;8.20;;;24.50;99.90;;;;;;4992128;28;20191;-71
2023/06/11 07:44:43;;;;;;;9.47;8.77;;;24.40;99.90;;;;;;4992206;28;20180;-70
2023/06/11 07:47:08;;;;;;;8.33;7.73;;;24.40;99.90;;;;;;4985466;28;20646;-71
2023/06/11 07:49:34;;;;;;;10.30;9.40;;;24.60;99.90;;;;;;4989578;28;20175;-70
2023/06/11 07:51:59;;;;;;;8.93;8.23;;;25.00;99.90;;;;;;4991887;28;20219;-70
2023/06/11 07:54:25;;;;;;;9.17;8.47;;;25.20;99.90;;;;;;4991849;28;20534;-71
2023/06/11 07:56:50;;;;;;;8.70;7.90;;;25.30;99.90;;;;;;4994415;28;20172;-70
2023/06/11 07:59:16;;;;;;;8.67;8.00;;;25.20;99.90;;;;;;4995216;28;20164;-71
2023/06/11 08:01:41;;;;;;;7.60;7.10;;;25.30;99.90;;;;;;4985989;28;20316;-71
2023/06/11 08:04:07;;;;;;;9.10;8.20;;;25.30;99.90;;;;;;4988386;28;20181;-71
2023/06/11 08:06:33;;;;;;;8.00;7.50;;;25.40;99.90;;;;;;4992822;28;20243;-70
2023/06/11 08:08:58;;;;;;;8.53;7.10;;;25.60;99.90;;;;;;4995294;28;20180;-71
2023/06/11 08:11:24;;;;;;;7.30;6.80;;;25.60;99.90;;;;;;4993880;28;20206;-71
2023/06/11 08:13:49;;;;;;;9.07;8.37;;;25.40;99.90;;;;;;4994259;28;20179;-71
2023/06/11 08:16:17;;;;;;;7.77;7.20;;;25.60;99.90;;;;;;4986332;28;20207;-71
2023/06/11 08:18:42;;;;;;;8.03;7.50;;;25.80;99.00;;;;;;4986569;28;20171;-70
2023/06/11 08:21:08;;;;;;;7.63;7.13;;;25.80;98.60;;;;;;4982363;28;20813;-71
2023/06/11 08:23:38;;;;;;;7.03;6.53;;;25.90;98.00;;;;;;4986668;28;20179;-71
2023/06/11 08:26:04;;;;;;;7.83;7.23;;;26.00;97.90;;;;;;4991556;28;20191;-71
2023/06/11 08:28:30;;;;;;;7.13;6.53;;;26.20;97.20;;;;;;4991876;28;20788;-71
2023/06/11 08:30:56;;;;;;;7.63;7.13;;;26.40;96.00;;;;;;4993482;28;20513;-70
2023/06/11 08:33:22;;;;;;;7.57;6.97;;;26.00;96.80;;;;;;4991592;28;20210;-71
2023/06/11 08:35:48;;;;;;;6.97;6.47;;;26.20;95.90;;;;;;4992752;28;20459;-71
2023/06/11 08:38:13;;;;;;;7.83;7.00;;;26.50;95.30;;;;;;4993152;28;20180;-71
2023/06/11 08:40:40;;;;;;;6.83;6.43;;;26.30;95.20;;;;;;4993411;28;20176;-71
2023/06/11 08:43:07;;;;;;;7.20;6.70;;;26.40;95.30;;;;;;4992749;28;20548;-70
2023/06/11 08:45:33;;;;;;;8.10;7.40;;;26.50;94.90;;;;;;4992561;28;20466;-71
2023/06/11 08:48:02;;;;;;;7.67;7.17;;;26.80;93.60;;;;;;4992924;28;20481;-71
2023/06/11 08:50:29;;;;;;;6.97;6.47;;;27.00;93.20;;;;;;4985859;28;20242;-70
2023/06/11 08:52:56;;;;;;;7.93;7.30;;;27.20;92.40;;;;;;4994270;28;20441;-71
2023/06/11 08:55:22;;;;;;;7.73;7.13;;;27.20;91.30;;;;;;4979081;28;20455;-71
2023/06/11 08:57:49;;;;;;;8.27;7.57;;;27.00;91.00;;;;;;4981968;28;20530;-70
2023/06/11 09:00:15;;;;;;;8.00;7.40;;;27.00;91.50;;;;;;4985771;28;20211;-71
2023/06/11 09:02:40;;;;;;;7.17;6.67;;;26.70;91.30;;;;;;4993978;28;20816;-71
2023/06/11 09:05:06;;;;;;;7.63;7.13;;;26.70;91.20;;;;;;4993783;28;20271;-71
2023/06/11 09:07:33;;;;;;;7.90;7.20;;;26.70;91.00;;;;;;4993228;28;20246;-71
2023/06/11 09:10:05;;;;;;;6.60;6.10;;;26.90;90.40;;;;;;4993018;28;20442;-70
2023/06/11 09:12:31;;;;;;;7.27;6.67;;;27.10;89.70;;;;;;4984482;28;20453;-70
2023/06/11 09:14:56;;;;;;;7.60;6.93;;;27.40;88.30;;;;;;4985809;28;20470;-71
2023/06/11 09:17:22;;;;;;;7.00;6.50;;;27.30;87.10;;;;;;4985757;28;20195;-72
2023/06/11 09:19:48;;;;;;;7.00;6.30;;;27.50;85.30;;;;;;4993703;28;20190;-71
2023/06/11 09:22:14;;;;;;;7.00;6.40;;;27.30;85.70;;;;;;4993376;28;20250;-71
2023/06/11 09:24:40;;;;;;;7.20;6.70;;;27.50;84.40;;;;;;4992197;28;20466;-71
2023/06/11 09:27:06;;;;;;;7.50;6.90;;;27.50;84.00;;;;;;4993655;28;20168;-71
2023/06/11 09:29:34;;;;;;;7.80;7.20;;;27.20;84.10;;;;;;4993572;28;20465;-70
2023/06/11 09:32:07;;;;;;;7.80;7.10;;;27.10;84.70;;;;;;4993860;28;20979;-71
2023/06/11 09:34:32;;;;;;;8.40;7.70;;;27.20;85.60;;;;;;4993764;28;20786;-71
2023/06/11 09:37:00;;;;;;;6.53;6.13;;;27.20;83.90;;;;;;4993552;28;20430;-71
2023/06/11 09:39:25;;;;;;;8.13;6.90;;;27.30;85.30;;;;;;4984076;28;20172;-71
2023/06/11 09:41:52;;;;;;;7.90;7.30;;;28.00;82.20;;;;;;4993311;28;20438;-68
2023/06/11 09:44:18;;;;;;;7.10;6.60;;;28.60;78.80;;;;;;4993479;28;20168;-68
2023/06/11 09:46:48;;;;;;;7.17;6.67;;;29.00;74.70;;;;;;4993204;28;20426;-68
2023/06/11 09:49:15;;;;;;;7.67;7.07;;;28.90;73.50;;;;;;4991711;28;20435;-68
2023/06/11 09:51:41;;;;;;;7.00;6.40;;;29.40;72.60;;;;;;4984595;28;20903;-71
2023/06/11 09:54:07;;;;;;;7.20;6.60;;;29.80;71.40;;;;;;4983552;28;20525;-71
2023/06/11 09:56:37;;;;;;;7.30;6.90;;;30.50;68.10;;;;;;4992947;28;20462;-70
2023/06/11 09:59:03;;;;;;;8.63;8.03;;;30.90;66.40;;;;;;4992170;28;20462;-71
2023/06/11 10:01:30;;;;;;;7.37;6.70;;;30.80;63.70;;;;;;4992337;28;20462;-71
2023/06/11 10:03:59;;;;;;;7.63;7.03;;;29.80;65.60;;;;;;4989679;28;20440;-71
2023/06/11 10:06:29;;;;;;;7.70;7.00;;;30.50;64.90;;;;;;4988853;28;20430;-71
2023/06/11 10:08:58;;;;;;;8.07;6.13;;;31.70;61.40;;;;;;4983555;28;20418;-72
2023/06/11 10:11:24;;;;;;;7.00;6.33;;;31.70;59.60;;;;;;4992003;28;20542;-71
2023/06/11 10:13:58;;;;;;;8.13;7.57;;;32.60;59.20;;;;;;4990566;28;20952;-69
2023/06/11 10:16:24;;;;;;;6.93;6.43;;;32.90;56.30;;;;;;4989958;28;20537;-69
2023/06/11 10:18:51;;;;;;;7.20;6.70;;;31.70;56.80;;;;;;4991838;28;20909;-69
2023/06/11 10:21:17;;;;;;;7.87;7.37;;;32.10;56.00;;;;;;4992602;28;20242;-68
2023/06/11 10:23:50;;;;;;;7.30;6.70;;;33.20;54.70;;;;;;4992716;28;20795;-68
2023/06/11 10:26:16;;;;;;;7.10;6.50;;;34.10;52.60;;;;;;4992714;28;20468;-69
2023/06/11 10:28:45;;;;;;;7.70;7.10;;;34.90;51.10;;;;;;4992517;28;20832;-71
2023/06/11 10:31:10;;;;;;;6.80;6.37;;;35.60;49.30;;;;;;4985310;28;20682;-71
2023/06/11 10:33:45;;;;;;;8.10;6.70;;;34.80;48.40;;;;;;4983162;28;20430;-71
2023/06/11 10:36:26;;;;;;;7.57;6.97;;;34.60;49.80;;;;;;4992557;28;20345;-71
2023/06/11 10:39:08;;;;;;;7.63;6.93;;;34.80;48.80;;;;;;4992269;28;20414;-71
2023/06/11 10:41:42;;;;;;;6.93;6.53;;;36.00;47.90;;;;;;4992515;28;20434;-71
2023/06/11 10:44:09;;;;;;;6.90;6.30;;;36.40;46.70;;;;;;4992497;28;20881;-71
2023/06/11 10:46:54;;;;;;;7.30;6.80;;;36.50;45.60;;;;;;4982356;28;20442;-69
2023/06/11 10:49:25;;;;;;;7.87;7.20;;;35.50;45.70;;;;;;4991866;28;20446;-68
2023/06/11 10:51:52;;;;;;;7.50;7.00;;;35.60;46.20;;;;;;4992443;28;20450;-70
2023/06/11 10:54:32;;;;;;;7.93;7.43;;;36.40;44.50;;;;;;4992567;28;20426;-70
2023/06/11 10:57:00;;;;;;;7.47;6.87;;;35.60;44.20;;;;;;4992606;28;20857;-71
2023/06/11 10:59:25;;;;;;;6.90;6.40;;;35.90;44.60;;;;;;4991306;28;20418;-71
2023/06/11 11:01:53;;;;;;;7.50;6.90;;;36.80;43.00;;;;;;4992434;28;20435;-70
2023/06/11 11:04:21;;;;;;;7.70;6.90;;;38.20;41.90;;;;;;4992453;28;20215;-69
2023/06/11 11:06:47;;;;;;;7.10;6.63;;;39.40;41.40;;;;;;4992347;28;20780;-68
2023/06/11 11:09:20;;;;;;;6.77;6.33;;;39.40;38.30;;;;;;4992098;28;20490;-68
2023/06/11 11:11:45;;;;;;;9.77;6.63;;;39.40;37.80;;;;;;4992076;28;20442;-68
2023/06/11 11:14:11;;;;;;;7.10;6.53;;;39.10;36.70;;;;;;4984558;28;20430;-69
2023/06/11 11:16:37;;;;;;;6.43;6.03;;;38.30;37.50;;;;;;4976217;28;20580;-69
2023/06/11 11:19:02;;;;;;;6.70;6.27;;;38.80;37.50;;;;;;4991835;28;20433;-69
2023/06/11 11:24:07;;;;;;;7.23;6.73;;;38.50;36.80;;;;;;4971491;28;20210;-67
2023/06/11 11:26:44;;;;;;;7.10;6.70;;;37.70;38.00;;;;;;4972567;28;21019;-67
2023/06/11 11:29:10;;;;;;;10.40;6.90;;;39.10;36.10;;;;;;4973317;28;20447;-67
2023/06/11 11:31:37;;;;;;;6.47;6.03;;;40.00;35.60;;;;;;4975995;28;20824;-67
2023/06/11 11:34:02;;;;;;;6.83;6.43;;;40.50;34.60;;;;;;4976986;28;20223;-67
2023/06/11 11:36:28;;;;;;;6.60;6.10;;;39.40;35.30;;;;;;4976641;28;20467;-67
2023/06/11 11:38:54;;;;;;;7.53;7.03;;;41.00;35.20;;;;;;4976210;28;20187;-67
2023/06/11 11:41:23;;;;;;;6.87;6.37;;;41.30;33.90;;;;;;4976844;28;20183;-67
2023/06/11 11:43:49;;;;;;;6.83;6.43;;;40.30;33.60;;;;;;4965666;28;20201;-67
2023/06/11 11:46:20;;;;;;;6.93;6.43;;;40.30;33.40;;;;;;4957404;28;20478;-67
2023/06/11 11:48:46;;;;;;;6.10;5.80;;;41.10;32.60;;;;;;4957255;29;20515;-67
2023/06/11 11:51:15;;;;;;;7.47;6.97;;;41.50;32.00;;;;;;4957369;28;20459;-67
2023/06/11 11:53:41;;;;;;;7.43;6.93;;;42.40;32.00;;;;;;4957250;29;20961;-67
2023/06/11 11:56:07;;;;;;;6.90;6.30;;;43.40;32.60;;;;;;4954507;28;21069;-67
2023/06/11 11:58:40;;;;;;;6.90;6.40;;;42.50;32.00;;;;;;4975503;28;20454;-67
2023/06/11 12:01:14;;;;;;;7.33;6.83;;;41.70;32.90;;;;;;4982626;28;20424;-67
2023/06/11 12:03:40;;;;;;;7.70;7.20;;;42.00;33.20;;;;;;4976586;28;20509;-67
2023/06/11 12:06:08;;;;;;;6.70;6.20;;;42.00;32.80;;;;;;4963142;28;20832;-67
2023/06/11 12:08:34;;;;;;;7.43;6.83;;;42.40;32.00;;;;;;4956864;29;20205;-67
2023/06/11 12:11:01;;;;;;;6.90;6.50;;;42.90;31.60;;;;;;4957037;28;21008;-67
2023/06/11 12:13:27;;;;;;;6.90;6.40;;;43.40;30.30;;;;;;4973444;28;20514;-67
2023/06/11 12:15:53;;;;;;;7.00;6.50;;;42.70;31.00;;;;;;4983428;28;20459;-67
2023/06/11 12:18:18;;;;;;;6.87;6.30;;;42.70;30.30;;;;;;4974864;28;20180;-67
2023/06/11 12:20:44;;;;;;;6.47;5.87;;;42.40;29.90;;;;;;4973769;28;20271;-67
2023/06/11 12:23:10;;;;;;;7.20;6.70;;;43.20;29.80;;;;;;4974955;28;20262;-67
2023/06/11 12:25:36;;;;;;;6.03;5.70;;;43.40;29.50;;;;;;4975897;28;20184;-68
2023/06/11 12:28:02;;;;;;;6.70;6.30;;;43.90;29.70;;;;;;4976402;28;20176;-67
2023/06/11 12:30:32;;;;;;;7.60;7.10;;;43.70;29.50;;;;;;4974315;28;20242;-67
2023/06/11 12:32:57;;;;;;;7.30;6.90;;;42.70;29.60;;;;;;4971564;28;20568;-67
2023/06/11 12:35:24;;;;;;;7.70;7.10;;;42.30;29.30;;;;;;4956661;28;20460;-68
2023/06/11 12:37:50;;;;;;;7.43;6.73;;;41.20;29.40;;;;;;4956760;28;20233;-67
2023/06/11 12:40:16;;;;;;;7.20;6.70;;;39.90;30.80;;;;;;4956284;29;20420;-67
2023/06/11 12:42:42;;;;;;;6.40;6.00;;;39.50;31.30;;;;;;4956411;28;20623;-67